Time;durP1;ratioP1;P1;durP2;ratioP2;P2;SDS_P1;SDS_P2;PMS_P1;PMS_P2;Temp;Humidity;BMP_temperature;BMP_pressure;BME280_temperature;BME280_humidity;BME280_pressure;Samples;Min_cycle;Max_cycle;Signal;HPM_P1;HPM_P2
2022/11/18 00:02:16;;;;;;;5.78;3.60;;;;;;;-1.11;76.64;99258.97;1784924;80;21726;-70
2022/11/18 00:04:46;;;;;;;6.00;3.40;;;;;;;-1.09;76.70;99258.81;1785080;80;21560;-73
2022/11/18 00:07:16;;;;;;;10.28;3.92;;;;;;;-1.10;76.32;99260.66;1747566;82;21796;-71
2022/11/18 00:09:45;;;;;;;6.22;4.00;;;;;;;-1.10;76.39;99263.34;1791013;79;21090;-71
2022/11/18 00:15:04;;;;;;;5.78;3.60;;;;;;;-1.09;76.77;99278.97;1798113;79;21617;-72
2022/11/18 00:17:33;;;;;;;6.92;3.90;;;;;;;-1.11;76.47;99269.72;1757699;79;21114;-72
2022/11/18 00:20:04;;;;;;;7.08;4.08;;;;;;;-1.12;76.56;99269.87;1783274;79;21087;-71
2022/11/18 00:22:35;;;;;;;5.95;3.95;;;;;;;-1.13;76.64;99273.55;1679215;85;21558;-71
2022/11/18 00:25:05;;;;;;;6.78;4.35;;;;;;;-1.12;76.82;99272.55;1743136;82;21119;-70
2022/11/18 00:27:36;;;;;;;6.20;3.85;;;;;;;-1.13;76.78;99264.14;1736012;82;21119;-70
2022/11/18 00:30:07;;;;;;;7.22;3.98;;;;;;;-1.15;76.68;99270.17;1693216;82;21138;-70
2022/11/18 00:32:36;;;;;;;5.92;3.80;;;;;;;-1.17;76.94;99269.48;1651651;87;21197;-70
2022/11/18 00:35:07;;;;;;;7.20;4.05;;;;;;;-1.16;77.02;99269.82;1630652;88;21206;-70
2022/11/18 00:37:37;;;;;;;5.95;3.70;;;;;;;-1.16;77.14;99266.64;1599679;90;21154;-70
2022/11/18 00:40:07;;;;;;;7.50;4.42;;;;;;;-1.15;77.17;99267.48;1642972;85;21131;-70
2022/11/18 00:42:52;;;;;;;6.70;3.95;;;;;;;-1.18;77.17;99261.91;1652067;85;21195;-72
2022/11/18 00:45:21;;;;;;;7.15;4.45;;;;;;;-1.14;77.24;99257.92;1652296;85;21173;-71
2022/11/18 00:47:50;;;;;;;7.37;4.47;;;;;;;-1.11;77.24;99264.84;1651917;87;21577;-71
2022/11/18 00:50:20;;;;;;;9.68;4.17;;;;;;;-1.14;76.76;99266.48;1651873;87;21138;-73
2022/11/18 00:52:48;;;;;;;6.58;4.10;;;;;;;-1.16;76.66;99261.26;1670470;84;21633;-72
2022/11/18 00:55:17;;;;;;;8.23;4.40;;;;;;;-1.17;76.49;99260.91;1713387;83;21126;-71
2022/11/18 00:57:47;;;;;;;8.15;4.17;;;;;;;-1.19;76.36;99261.56;1733474;82;21257;-70
2022/11/18 01:00:19;;;;;;;10.70;4.45;;;;;;;-1.19;76.46;99261.56;1743037;82;21166;-71
2022/11/18 01:02:49;;;;;;;7.10;4.50;;;;;;;-1.15;76.51;99258.08;1716795;83;21183;-70
2022/11/18 01:05:18;;;;;;;7.33;4.58;;;;;;;-1.13;76.52;99267.67;1720945;82;21198;-73
2022/11/18 01:07:48;;;;;;;8.40;4.08;;;;;;;-1.12;76.36;99259.11;1743000;82;21142;-72
2022/11/18 01:10:17;;;;;;;7.00;4.30;;;;;;;-1.11;76.01;99265.69;1743133;82;21158;-72
2022/11/18 01:15:42;;;;;;;8.43;4.50;;;;;;;-1.18;75.41;99263.75;1742428;82;21206;-71
2022/11/18 01:18:13;;;;;;;7.35;4.28;;;;;;;-1.21;75.52;99270.27;1737572;82;21144;-70
2022/11/18 01:20:41;;;;;;;8.33;4.37;;;;;;;-1.20;75.45;99266.59;1774460;81;21151;-71
2022/11/18 01:23:11;;;;;;;9.53;4.53;;;;;;;-1.21;74.98;99258.19;1774387;81;21111;-70
2022/11/18 01:25:42;;;;;;;9.70;4.83;;;;;;;-1.22;75.11;99263.21;1774337;81;21597;-71
2022/11/18 01:28:11;;;;;;;9.43;4.58;;;;;;;-1.20;74.96;99265.75;1774354;81;21123;-70
2022/11/18 01:30:40;;;;;;;9.23;4.50;;;;;;;-1.17;74.95;99268.13;1774480;79;21115;-73
2022/11/18 01:33:09;;;;;;;8.93;4.40;;;;;;;-1.14;75.05;99265.98;1774334;81;21632;-71
2022/11/18 01:35:42;;;;;;;8.88;4.67;;;;;;;-1.11;75.12;99268.38;1774322;81;21143;-70
2022/11/18 01:38:13;;;;;;;10.38;5.12;;;;;;;-1.10;75.22;99266.03;1774452;81;21174;-71
2022/11/18 01:40:43;;;;;;;9.55;4.90;;;;;;;-1.08;74.98;99265.88;1774414;81;21112;-71
2022/11/18 01:43:14;;;;;;;13.88;5.28;;;;;;;-1.11;74.70;99267.03;1774518;81;22333;-71
2022/11/18 01:45:48;;;;;;;10.75;4.62;;;;;;;-1.11;74.65;99269.72;1774615;81;21127;-70
2022/11/18 01:48:29;;;;;;;6.97;4.47;;;;;;;-1.08;74.54;99268.07;1792712;79;21108;-70
2022/11/18 01:51:15;;;;;;;10.75;4.95;;;;;;;-1.14;73.86;99272.70;1774253;81;21139;-71
2022/11/18 01:53:58;;;;;;;8.58;4.62;;;;;;;-1.15;74.10;99274.20;1774328;81;21092;-71
2022/11/18 01:56:34;;;;;;;8.75;4.92;;;;;;;-1.16;74.33;99272.02;1773157;80;21554;-71
2022/11/18 01:59:12;;;;;;;7.87;4.35;;;;;;;-1.17;74.36;99281.07;1774489;81;21162;-71
2022/11/18 02:01:41;;;;;;;10.15;4.45;;;;;;;-1.18;74.37;99283.91;1774448;81;21087;-70
2022/11/18 02:04:13;;;;;;;7.55;4.50;;;;;;;-1.24;73.98;99282.67;1774404;81;21783;-70
2022/11/18 02:06:44;;;;;;;8.90;4.92;;;;;;;-1.31;74.10;99281.55;1721779;82;21511;-73
2022/11/18 02:09:16;;;;;;;7.35;4.55;;;;;;;-1.29;74.53;99288.98;1782937;79;21631;-70
2022/11/18 02:11:55;;;;;;;7.08;4.58;;;;;;;-1.27;74.52;99295.06;1774677;81;21143;-72
2022/11/18 02:14:31;;;;;;;8.90;4.85;;;;;;;-1.26;74.57;99295.41;1780116;79;21539;-71
2022/11/18 02:17:20;;;;;;;9.55;4.67;;;;;;;-1.28;74.00;99294.70;1802288;79;21115;-72
2022/11/18 02:20:11;;;;;;;7.50;4.10;;;;;;;-1.32;74.06;99293.28;1765019;80;21090;-71
2022/11/18 02:23:27;;;;;;;8.35;4.45;;;;;;;-1.31;74.05;99292.29;1749338;82;21541;-71
2022/11/18 02:26:24;;;;;;;6.92;4.35;;;;;;;-1.28;73.89;99294.70;1756596;80;21150;-72
2022/11/18 02:29:27;;;;;;;8.00;4.53;;;;;;;-1.32;73.84;99297.31;1795405;80;21566;-71
2022/11/18 02:32:00;;;;;;;7.70;4.20;;;;;;;-1.34;73.70;99296.12;1798771;80;21163;-70
2022/11/18 02:34:54;;;;;;;8.43;4.62;;;;;;;-1.36;73.31;99297.27;1717688;83;21190;-71
2022/11/18 02:37:50;;;;;;;7.87;4.42;;;;;;;-1.39;73.44;99302.44;1798787;80;21103;-72
2022/11/18 02:40:32;;;;;;;7.40;4.20;;;;;;;-1.37;73.58;99296.42;1718360;83;21159;-70
2022/11/18 02:43:28;;;;;;;6.62;4.22;;;;;;;-1.35;73.41;99298.45;1779090;80;21155;-70
2022/11/18 02:46:08;;;;;;;7.62;4.00;;;;;;;-1.34;73.24;99300.65;1733607;82;21175;-70
2022/11/18 02:48:41;;;;;;;10.03;4.22;;;;;;;-1.35;73.04;99307.02;1733699;83;21151;-71
2022/11/18 02:51:10;;;;;;;6.70;3.65;;;;;;;-1.38;73.20;99301.45;1730200;83;21567;-70
2022/11/18 02:53:41;;;;;;;8.73;4.50;;;;;;;-1.38;73.11;99304.12;1733415;83;21158;-71
2022/11/18 02:56:10;;;;;;;8.28;3.85;;;;;;;-1.39;73.08;99311.00;1691417;84;21144;-72
2022/11/18 02:58:39;;;;;;;6.70;4.03;;;;;;;-1.38;73.05;99307.31;1708333;83;21107;-71
2022/11/18 03:01:21;;;;;;;6.12;4.17;;;;;;;-1.38;73.02;99306.81;1713683;84;21120;-72
2022/11/18 03:03:51;;;;;;;8.08;4.35;;;;;;;-1.37;73.04;99305.83;1678590;84;21610;-71
2022/11/18 03:06:39;;;;;;;6.78;3.67;;;;;;;-1.35;72.98;99309.70;1713698;84;21144;-71
2022/11/18 03:09:33;;;;;;;7.55;3.85;;;;;;;-1.39;72.92;99309.16;1713651;84;21583;-70
2022/11/18 03:12:23;;;;;;;11.48;4.85;;;;;;;-1.44;72.52;99307.41;1713699;84;21200;-71
2022/11/18 03:15:07;;;;;;;7.22;4.17;;;;;;;-1.46;73.02;99304.52;1638041;86;21165;-70
2022/11/18 03:17:48;;;;;;;8.20;4.60;;;;;;;-1.42;73.36;99306.77;1635854;86;21415;-71
2022/11/18 03:20:35;;;;;;;7.35;4.03;;;;;;;-1.39;73.35;99309.16;1627418;85;21207;-71
2022/11/18 03:23:33;;;;;;;6.25;3.75;;;;;;;-1.36;73.05;99309.36;1711218;84;21233;-71
2022/11/18 03:26:18;;;;;;;7.05;3.90;;;;;;;-1.36;73.04;99306.67;1713617;84;21153;-70
2022/11/18 03:29:19;;;;;;;6.53;3.92;;;;;;;-1.35;72.80;99306.52;1713758;84;21649;-72
2022/11/18 03:32:02;;;;;;;6.53;4.00;;;;;;;-1.32;72.87;99304.03;1685070;85;21190;-71
2022/11/18 03:34:39;;;;;;;7.05;4.00;;;;;;;-1.26;72.98;99308.84;1749350;82;21122;-71
2022/11/18 03:37:08;;;;;;;;;;;;;;;-1.23;72.81;99317.09;1750969;80;21138;-72
2022/11/18 03:39:43;;;;;;;6.83;3.67;;;;;;;-1.26;72.30;99322.77;1747866;81;20221;-71
2022/11/18 03:42:28;;;;;;;7.15;3.58;;;;;;;-1.29;72.48;99315.36;1689998;84;21608;-71
2022/11/18 03:45:02;;;;;;;6.97;4.05;;;;;;;-1.33;72.15;99315.77;1767272;81;21630;-70
2022/11/18 03:47:40;;;;;;;5.42;3.08;;;;;;;-1.38;71.90;99310.84;1767393;81;21166;-74
2022/11/18 03:50:33;;;;;;;6.50;3.77;;;;;;;-1.39;72.06;99313.19;1759239;80;21150;-71
2022/11/18 03:53:03;;;;;;;7.50;3.55;;;;;;;-1.38;72.10;99323.44;1733106;80;21186;-72
2022/11/18 03:55:41;;;;;;;5.33;3.17;;;;;;;-1.36;72.01;99324.13;1696114;84;21158;-70
2022/11/18 03:58:16;;;;;;;6.50;3.30;;;;;;;-1.36;71.99;99329.00;1741822;80;21095;-71
2022/11/18 04:00:49;;;;;;;5.47;3.58;;;;;;;-1.35;72.16;99327.16;1747488;82;21098;-71
2022/11/18 04:06:43;;;;;;;7.03;3.50;;;;;;;-1.33;72.08;99326.02;1749998;82;21103;-70
2022/11/18 07:27:04;;;;;;;21.65;9.08;;;;;;;-0.72;73.62;99443.75;1779283;80;28112;-73
2022/11/18 07:29:36;;;;;;;19.07;8.20;;;;;;;-0.71;73.45;99454.86;1739603;81;21194;-73
2022/11/18 07:32:06;;;;;;;14.33;7.28;;;;;;;-0.70;73.26;99453.86;1712237;82;21558;-73
2022/11/18 07:34:37;;;;;;;16.75;7.55;;;;;;;-0.70;72.99;99446.29;1768265;81;21206;-74
2022/11/18 07:37:08;;;;;;;15.85;7.85;;;;;;;-0.69;72.81;99454.20;1738922;81;21163;-74
2022/11/18 07:39:38;;;;;;;21.45;8.30;;;;;;;-0.68;72.54;99461.78;1738784;81;21208;-72
2022/11/18 07:42:12;;;;;;;17.50;8.28;;;;;;;-0.67;72.32;99464.31;1768203;81;21111;-74
2022/11/18 07:44:42;;;;;;;17.25;8.18;;;;;;;-0.69;71.98;99456.89;1768145;81;21170;-74
2022/11/18 07:47:13;;;;;;;23.70;9.05;;;;;;;-0.70;71.79;99466.45;1738162;81;21133;-74
2022/11/18 07:49:43;;;;;;;24.32;10.38;;;;;;;-0.68;71.82;99466.66;1768330;81;21120;-74
2022/11/18 07:52:13;;;;;;;22.82;10.30;;;;;;;-0.66;71.53;99471.39;1768128;81;21155;-73
2022/11/18 07:54:43;;;;;;;19.42;8.75;;;;;;;-0.63;71.42;99474.31;1768387;81;21187;-72
2022/11/18 07:57:15;;;;;;;21.52;8.78;;;;;;;-0.63;71.24;99475.66;1768242;81;21126;-73
2022/11/18 07:59:46;;;;;;;22.75;8.93;;;;;;;-0.59;71.12;99474.36;1739689;81;21620;-74
2022/11/18 08:02:18;;;;;;;17.55;8.38;;;;;;;-0.57;70.88;99483.13;1768182;81;21120;-74
2022/11/18 08:04:49;;;;;;;21.10;9.10;;;;;;;-0.59;70.53;99486.47;1768207;81;21180;-74
2022/11/18 08:07:20;;;;;;;17.82;8.83;;;;;;;-0.62;70.33;99489.45;1763425;81;21533;-74
2022/11/18 08:09:52;;;;;;;20.37;8.88;;;;;;;-0.66;70.26;99486.69;1768195;81;21169;-72
2022/11/18 08:12:26;;;;;;;26.50;10.10;;;;;;;-0.68;70.34;99489.52;1768137;81;21261;-75
2022/11/18 08:15:03;;;;;;;26.02;10.18;;;;;;;-0.65;70.52;99495.98;1671410;86;21341;-74
2022/11/18 08:17:36;;;;;;;27.60;10.48;;;;;;;-0.60;70.54;99495.53;1646032;86;21149;-75
2022/11/18 08:20:08;;;;;;;22.20;9.88;;;;;;;-0.56;70.42;99502.81;1668573;86;21141;-74
2022/11/18 08:22:44;;;;;;;17.35;9.15;;;;;;;-0.56;70.17;99510.38;1668758;86;21261;-74
2022/11/18 08:25:16;;;;;;;16.17;8.58;;;;;;;-0.58;70.05;99517.75;1661209;85;21639;-74
2022/11/18 08:27:46;;;;;;;22.77;10.00;;;;;;;-0.59;70.27;99511.17;1673004;86;21165;-74
2022/11/18 08:30:17;;;;;;;16.27;9.18;;;;;;;-0.60;70.22;99516.20;1658443;86;21141;-73
2022/11/18 08:32:49;;;;;;;16.23;8.60;;;;;;;-0.64;70.07;99523.72;1703293;80;21118;-75
2022/11/18 08:35:19;;;;;;;16.50;8.65;;;;;;;-0.70;70.15;99527.82;1766350;80;21127;-73
2022/11/18 08:37:49;;;;;;;16.55;8.80;;;;;;;-0.69;70.28;99520.10;1757929;81;21130;-74
2022/11/18 08:40:18;;;;;;;22.52;9.90;;;;;;;-0.67;70.36;99526.68;1766028;81;21095;-73
2022/11/18 08:42:48;;;;;;;20.80;8.85;;;;;;;-0.63;70.53;99532.14;1792665;80;21130;-74
2022/11/18 08:45:18;;;;;;;20.62;9.08;;;;;;;-0.58;70.69;99533.89;1757560;81;21237;-74
2022/11/18 08:47:47;;;;;;;17.60;9.23;;;;;;;-0.54;70.51;99530.41;1753072;81;21579;-76
2022/11/18 08:50:18;;;;;;;18.77;8.53;;;;;;;-0.52;70.63;99537.34;1778895;78;21603;-74
2022/11/18 08:52:47;;;;;;;17.40;8.93;;;;;;;-0.49;70.55;99541.57;1751317;82;21130;-75
2022/11/18 08:55:18;;;;;;;22.35;9.78;;;;;;;-0.51;70.54;99535.49;1784935;78;21090;-75
2022/11/18 08:57:48;;;;;;;19.95;9.18;;;;;;;-0.51;70.60;99532.80;1775008;80;21144;-74
2022/11/18 09:00:19;;;;;;;22.10;10.50;;;;;;;-0.51;70.53;99530.96;1764408;81;21159;-72
2022/11/18 09:02:50;;;;;;;21.40;8.93;;;;;;;-0.47;70.82;99531.51;1767109;80;21222;-72
2022/11/18 09:05:22;;;;;;;18.67;9.25;;;;;;;-0.35;71.99;99534.35;1739496;82;21181;-75
2022/11/18 09:07:52;;;;;;;17.05;9.13;;;;;;;-0.32;71.05;99517.91;1762775;81;21544;-75
2022/11/18 09:10:22;;;;;;;19.85;9.78;;;;;;;-0.32;71.12;99531.36;1768642;81;21127;-75
2022/11/18 09:12:51;;;;;;;23.95;9.33;;;;;;;-0.27;71.07;99525.53;1770303;81;21103;-74
2022/11/18 09:15:22;;;;;;;26.75;10.30;;;;;;;-0.22;71.05;99527.27;1770179;81;21543;-77
2022/11/18 09:17:54;;;;;;;16.70;8.35;;;;;;;-0.17;70.90;99535.24;1770313;81;21128;-76
2022/11/18 09:20:24;;;;;;;20.35;9.73;;;;;;;-0.18;70.23;99532.20;1770334;81;21186;-75
2022/11/18 09:22:53;;;;;;;21.82;8.30;;;;;;;-0.23;69.94;99544.42;1770225;81;21602;-75
2022/11/18 09:25:23;;;;;;;15.95;7.65;;;;;;;-0.27;70.05;99541.18;1770387;81;21144;-76
2022/11/18 09:27:54;;;;;;;14.70;7.90;;;;;;;-0.27;69.60;99543.87;1770388;81;21127;-74
2022/11/18 09:30:25;;;;;;;15.83;8.38;;;;;;;-0.32;69.12;99544.32;1743030;81;21143;-76
2022/11/18 09:32:56;;;;;;;16.12;7.78;;;;;;;-0.34;68.79;99553.05;1770572;81;21215;-76
2022/11/18 09:35:26;;;;;;;21.82;9.13;;;;;;;-0.35;68.73;99552.69;1742712;81;21632;-76
2022/11/18 09:37:57;;;;;;;25.08;8.90;;;;;;;-0.34;68.51;99553.05;1742883;81;21215;-75
2022/11/18 09:40:27;;;;;;;23.55;9.18;;;;;;;-0.33;68.40;99552.55;1755285;81;21159;-74
2022/11/18 09:43:10;;;;;;;15.58;7.67;;;;;;;-0.29;68.83;99545.87;1739776;82;21641;-77
2022/11/18 09:45:43;;;;;;;23.45;9.38;;;;;;;-0.26;68.79;99554.98;1704005;84;21201;-70
2022/11/18 09:49:11;;;;;;;17.95;8.58;;;;;;;-0.27;68.40;99553.30;1740242;81;21163;-77
2022/11/18 09:50:55;;;;;;;21.02;10.05;;;;;;;-0.29;68.63;99555.78;1737479;82;21135;-75
2022/11/18 09:53:26;;;;;;;29.90;13.93;;;;;;;-0.31;68.78;99558.63;1740029;82;21190;-73
2022/11/18 09:55:57;;;;;;;22.85;10.35;;;;;;;-0.35;69.28;99552.69;1720946;81;21554;-76
2022/11/18 09:58:36;;;;;;;23.55;10.48;;;;;;;-0.30;69.67;99555.44;1727341;81;21606;-75
2022/11/18 10:01:15;;;;;;;22.87;9.93;;;;;;;-0.29;69.22;99557.13;1722439;82;21162;-76
2022/11/18 10:03:48;;;;;;;26.37;10.18;;;;;;;-0.32;69.40;99550.20;1754593;81;21175;-77
2022/11/18 10:06:32;;;;;;;21.10;9.43;;;;;;;-0.35;69.22;99541.92;1739977;82;21119;-77
2022/11/18 10:09:19;;;;;;;18.25;8.23;;;;;;;-0.31;69.69;99541.13;1739986;82;21653;-79
2022/11/18 10:12:34;;;;;;;17.30;8.13;;;;;;;-0.25;69.34;99532.95;1742516;81;21143;-78
2022/11/18 10:15:24;;;;;;;17.17;9.13;;;;;;;-0.21;69.26;99530.31;1735423;81;21117;-77
2022/11/18 10:18:06;;;;;;;21.02;9.45;;;;;;;-0.17;68.74;99531.70;1742569;81;21551;-79
2022/11/18 10:20:56;;;;;;;17.87;8.58;;;;;;;-0.17;68.77;99535.74;1707345;82;21131;-78
2022/11/18 10:23:37;;;;;;;17.95;8.98;;;;;;;-0.16;68.89;99537.44;1710539;82;21441;-78
2022/11/18 10:26:06;;;;;;;16.55;8.28;;;;;;;-0.11;69.02;99534.64;1723764;81;21543;-75
2022/11/18 10:28:35;;;;;;;23.57;9.28;;;;;;;-0.10;68.86;99532.80;1752901;82;21160;-76
2022/11/18 10:31:11;;;;;;;18.45;8.63;;;;;;;-0.07;69.08;99535.19;1770408;81;21137;-76
2022/11/18 10:33:45;;;;;;;18.17;7.90;;;;;;;-0.05;68.95;99534.03;1770270;81;21182;-75
2022/11/18 10:36:26;;;;;;;18.82;8.93;;;;;;;-0.02;69.02;99532.88;1770503;81;21126;-76
2022/11/18 10:39:13;;;;;;;18.15;8.78;;;;;;;-0.01;69.02;99530.55;1770354;81;21121;-74
2022/11/18 10:41:49;;;;;;;13.72;6.03;;;;;;;0.07;69.37;99539.23;1770460;81;21152;-73
2022/11/18 10:44:35;;;;;;;22.60;9.00;;;;;;;0.15;70.29;99542.02;1742259;81;21201;-75
2022/11/18 10:47:18;;;;;;;18.82;8.68;;;;;;;0.22;70.06;99541.25;1770438;81;21126;-75
2022/11/18 10:49:50;;;;;;;24.20;8.90;;;;;;;0.23;69.30;99541.60;1769993;81;21178;-73
2022/11/18 10:52:20;;;;;;;18.75;8.75;;;;;;;0.17;68.97;99535.48;1770281;81;21145;-75
2022/11/18 10:55:12;;;;;;;17.60;8.68;;;;;;;0.17;69.04;99538.17;1770291;81;21157;-74
2022/11/18 10:57:44;;;;;;;17.90;8.50;;;;;;;0.15;68.86;99538.83;1770290;81;21134;-75
2022/11/18 11:00:43;;;;;;;14.95;7.90;;;;;;;0.14;69.03;99526.36;1770641;81;21177;-75
2022/11/18 11:03:23;;;;;;;16.55;7.22;;;;;;;0.12;69.11;99539.13;1770373;81;21541;-74
2022/11/18 11:06:31;;;;;;;15.30;6.45;;;;;;;0.09;69.16;99534.55;1739916;82;21556;-75
2022/11/18 11:09:15;;;;;;;13.48;6.17;;;;;;;0.07;69.77;99529.31;1740125;82;21145;-76
2022/11/18 11:12:02;;;;;;;12.50;6.83;;;;;;;0.13;69.99;99536.78;1677930;85;21142;-76
2022/11/18 11:14:50;;;;;;;15.35;6.47;;;;;;;0.15;70.24;99534.78;1678372;85;21105;-75
2022/11/18 11:17:36;;;;;;;12.20;6.00;;;;;;;0.20;70.30;99537.02;1678903;85;21173;-76
2022/11/18 11:20:14;;;;;;;14.85;7.08;;;;;;;0.20;70.13;99537.87;1698337;84;21149;-76
2022/11/18 11:22:48;;;;;;;16.70;7.40;;;;;;;0.17;69.95;99544.06;1624635;88;21956;-75
2022/11/18 11:25:32;;;;;;;16.45;7.70;;;;;;;0.17;69.91;99542.71;1625240;88;21610;-75
2022/11/18 11:28:18;;;;;;;15.65;7.67;;;;;;;0.13;69.79;99542.17;1623738;88;21234;-74
2022/11/18 11:31:02;;;;;;;14.40;7.83;;;;;;;0.13;69.85;99541.32;1672419;85;21799;-75
2022/11/18 11:34:01;;;;;;;12.58;6.75;;;;;;;0.10;70.05;99553.25;1680937;85;21231;-75
2022/11/18 11:36:59;;;;;;;19.40;7.70;;;;;;;0.12;70.59;99555.28;1679067;85;21137;-73
2022/11/18 11:39:48;;;;;;;;;;;;;;;0.10;70.48;99549.20;1681261;85;21218;-75
2022/11/18 11:42:52;;;;;;;15.68;7.25;;;;;;;0.12;70.21;99561.17;1678955;85;20236;-76
2022/11/18 11:45:36;;;;;;;17.73;7.95;;;;;;;0.10;70.17;99568.56;1679213;85;21156;-74
2022/11/18 11:48:56;;;;;;;13.98;8.33;;;;;;;0.08;70.08;99572.75;1749601;81;21114;-74
2022/11/18 11:51:42;;;;;;;17.45;7.87;;;;;;;0.10;70.39;99582.02;1740009;82;21177;-74
2022/11/18 11:54:51;;;;;;;18.23;7.55;;;;;;;0.08;70.16;99591.59;1722892;82;21162;-75
2022/11/18 11:57:38;;;;;;;16.52;7.95;;;;;;;0.11;70.36;99583.72;1744049;81;21189;-76
2022/11/18 12:00:13;;;;;;;21.70;9.03;;;;;;;0.11;70.09;99583.72;1770402;81;21102;-75
2022/11/18 12:03:13;;;;;;;22.55;8.70;;;;;;;0.09;69.89;99585.72;1770262;81;21177;-76
2022/11/18 12:05:44;;;;;;;17.73;7.87;;;;;;;0.12;70.43;99588.11;1769541;79;21149;-75
2022/11/18 12:08:23;;;;;;;17.42;9.50;;;;;;;0.12;69.79;99600.23;1770346;81;21190;-75
2022/11/18 12:11:46;;;;;;;19.73;9.13;;;;;;;0.09;69.78;99597.34;1770450;81;21165;-75
2022/11/18 12:14:39;;;;;;;15.85;8.60;;;;;;;0.10;69.93;99604.41;1770411;81;21154;-75
2022/11/18 12:17:18;;;;;;;17.40;7.72;;;;;;;0.10;69.85;99617.03;1770261;81;21157;-78
2022/11/18 12:19:47;;;;;;;18.98;7.78;;;;;;;0.08;70.16;99618.53;1770283;81;21171;-75
2022/11/18 12:22:18;;;;;;;23.65;9.20;;;;;;;0.06;70.03;99611.10;1770118;81;21100;-75
2022/11/18 12:24:48;;;;;;;19.12;8.53;;;;;;;0.06;70.33;99616.48;1770156;81;21163;-76
2022/11/18 12:27:33;;;;;;;18.40;7.72;;;;;;;0.07;70.54;99603.38;1770521;81;21153;-75
2022/11/18 12:30:03;;;;;;;20.92;7.60;;;;;;;0.06;70.48;99604.37;1770422;81;21130;-75
2022/11/18 12:32:42;;;;;;;18.10;8.48;;;;;;;0.06;70.75;99594.95;1770414;81;21200;-75
2022/11/18 12:35:16;;;;;;;16.35;7.80;;;;;;;0.06;70.66;99596.29;1770392;81;21126;-76
2022/11/18 12:37:57;;;;;;;15.03;7.60;;;;;;;0.06;70.65;99586.87;1770338;81;21321;-74
2022/11/18 12:40:46;;;;;;;17.00;8.90;;;;;;;0.09;71.59;99585.22;1770161;81;21159;-74
2022/11/18 12:43:46;;;;;;;16.97;8.05;;;;;;;0.11;71.41;99593.99;1792338;80;21130;-74
2022/11/18 12:46:47;;;;;;;19.77;8.65;;;;;;;0.10;71.08;99605.77;1753088;82;21146;-75
2022/11/18 12:49:27;;;;;;;17.87;9.28;;;;;;;0.06;71.22;99607.56;1792101;80;21144;-75
2022/11/18 12:51:59;;;;;;;15.63;8.50;;;;;;;0.04;71.53;99618.48;1753101;82;21170;-75
2022/11/18 12:54:40;;;;;;;19.40;9.28;;;;;;;0.04;71.68;99633.30;1792164;80;21143;-74
2022/11/18 12:57:25;;;;;;;18.32;8.80;;;;;;;0.04;71.96;99621.17;1752070;81;21197;-74
2022/11/18 12:59:55;;;;;;;20.50;9.23;;;;;;;0.07;72.18;99622.22;1740306;82;21442;-75
2022/11/18 13:02:26;;;;;;;22.32;9.98;;;;;;;0.11;72.24;99640.27;1743379;80;21122;-75
2022/11/18 16:29:43;;;;;;;20.80;10.55;;;;;;;0.08;77.72;99618.53;1829730;77;23055;-74
2022/11/18 16:32:13;;;;;;;18.42;10.38;;;;;;;0.08;77.64;99622.57;1724041;82;21618;-73
2022/11/18 16:34:43;;;;;;;19.05;10.15;;;;;;;0.11;77.69;99622.77;1740002;82;21598;-75
2022/11/18 16:37:13;;;;;;;18.92;10.05;;;;;;;0.11;77.49;99626.31;1722642;83;21103;-73
2022/11/18 16:39:42;;;;;;;21.27;10.10;;;;;;;0.12;77.62;99634.73;1717344;83;21163;-73
2022/11/18 16:42:11;;;;;;;19.73;9.65;;;;;;;0.14;77.80;99636.78;1722535;83;21166;-74
2022/11/18 16:44:41;;;;;;;16.45;8.95;;;;;;;0.15;77.73;99637.63;1739182;81;21174;-73
2022/11/18 16:47:11;;;;;;;28.90;18.87;;;;;;;0.14;77.75;99640.83;1741589;82;21145;-72
2022/11/18 16:49:42;;;;;;;21.23;9.78;;;;;;;0.12;77.80;99645.52;1715551;81;21588;-74
2022/11/18 16:52:12;;;;;;;20.10;10.13;;;;;;;0.10;77.94;99646.16;1741281;81;21551;-73
2022/11/18 16:54:41;;;;;;;19.55;9.85;;;;;;;0.07;78.13;99647.80;1722480;83;21130;-76
2022/11/18 16:57:12;;;;;;;23.50;10.48;;;;;;;0.09;78.15;99644.96;1686428;83;21579;-74
2022/11/18 16:59:42;;;;;;;19.25;10.48;;;;;;;0.10;78.19;99648.85;1717576;82;21119;-73
2022/11/18 17:02:12;;;;;;;22.20;10.65;;;;;;;0.08;78.04;99652.20;1704324;83;21117;-75
2022/11/18 17:04:42;;;;;;;19.92;10.43;;;;;;;0.06;78.15;99654.19;1727038;83;21143;-74
2022/11/18 17:07:12;;;;;;;21.10;10.65;;;;;;;0.04;78.24;99641.38;1721732;83;21142;-75
2022/11/18 17:09:41;;;;;;;21.77;11.35;;;;;;;0.01;78.33;99636.28;1721504;82;21635;-74
2022/11/18 17:12:11;;;;;;;20.60;11.38;;;;;;;-0.01;78.59;99644.48;1721411;82;21139;-74
2022/11/18 17:14:41;;;;;;;21.82;11.22;;;;;;;0.03;78.97;99636.13;1744325;82;21103;-75
2022/11/18 17:17:12;;;;;;;26.33;12.60;;;;;;;0.03;79.20;99643.72;1666914;85;21175;-73
2022/11/18 17:19:42;;;;;;;20.50;11.05;;;;;;;0.04;79.49;99641.88;1764318;81;21096;-73
2022/11/18 17:22:11;;;;;;;21.35;11.40;;;;;;;0.04;79.82;99642.72;1671128;85;21561;-75
2022/11/18 17:24:41;;;;;;;21.60;11.70;;;;;;;0.01;80.16;99642.17;1734089;83;21275;-74
2022/11/18 17:27:12;;;;;;;26.20;12.80;;;;;;;0.01;80.41;99641.67;1744632;82;21135;-73
2022/11/18 17:29:44;;;;;;;30.23;13.30;;;;;;;0.02;80.63;99643.87;1745760;81;21124;-74
2022/11/18 17:32:15;;;;;;;24.55;12.15;;;;;;;0.02;80.80;99643.37;1704959;82;21150;-75
2022/11/18 17:34:45;;;;;;;24.95;12.25;;;;;;;0.05;81.04;99648.95;1709945;83;21184;-72
2022/11/18 17:37:15;;;;;;;27.00;12.70;;;;;;;0.03;81.22;99656.33;1729213;81;21164;-74
2022/11/18 17:39:48;;;;;;;27.05;12.78;;;;;;;-0.01;81.61;99667.87;1731290;80;21178;-74
2022/11/18 17:42:21;;;;;;;23.73;12.47;;;;;;;-0.04;81.79;99661.43;1749152;82;21529;-75
2022/11/18 17:44:49;;;;;;;22.73;11.45;;;;;;;-0.07;82.04;99645.57;1749454;80;21114;-74
2022/11/18 17:47:19;;;;;;;22.85;11.18;;;;;;;-0.05;82.33;99638.20;1749136;82;21214;-75
2022/11/18 17:49:50;;;;;;;25.55;12.10;;;;;;;-0.04;82.53;99642.09;1713579;84;21142;-76
2022/11/18 17:52:19;;;;;;;23.57;11.88;;;;;;;0.01;82.75;99639.48;1749256;82;21102;-75
2022/11/18 17:54:48;;;;;;;25.08;12.13;;;;;;;0.05;82.90;99627.41;1713619;83;21123;-75
2022/11/18 17:57:18;;;;;;;21.90;11.35;;;;;;;0.05;82.95;99630.95;1749326;82;21592;-76
2022/11/18 17:59:47;;;;;;;23.83;11.28;;;;;;;0.08;83.08;99640.58;1766018;80;21106;-74
2022/11/18 18:02:17;;;;;;;20.50;10.82;;;;;;;0.12;83.16;99627.16;1780012;80;21110;-74
2022/11/18 18:04:48;;;;;;;21.15;10.80;;;;;;;0.11;83.09;99625.46;1770124;80;21149;-75
2022/11/18 18:07:16;;;;;;;20.08;10.38;;;;;;;0.07;83.01;99626.27;1749106;82;21086;-74
2022/11/18 18:09:46;;;;;;;23.75;11.57;;;;;;;0.05;83.03;99619.33;1713587;82;21566;-74
2022/11/18 18:15:06;;;;;;;26.77;12.90;;;;;;;-0.01;83.30;99622.09;1713760;82;21170;-74
2022/11/18 18:17:35;;;;;;;28.30;12.75;;;;;;;0.01;83.37;99612.05;1688884;83;21171;-74
2022/11/18 18:20:06;;;;;;;23.73;11.88;;;;;;;0.01;83.50;99606.66;1749144;82;21130;-74
2022/11/18 18:22:35;;;;;;;22.00;11.50;;;;;;;-0.02;83.50;99602.89;1685774;84;21154;-75
2022/11/18 18:25:06;;;;;;;23.40;11.35;;;;;;;-0.05;83.59;99603.19;1679392;85;21182;-74
2022/11/18 18:27:37;;;;;;;22.37;11.20;;;;;;;-0.06;83.71;99595.61;1685030;84;21190;-75
2022/11/18 18:30:09;;;;;;;24.20;12.35;;;;;;;-0.10;83.80;99586.14;1708316;84;21179;-75
2022/11/18 18:32:40;;;;;;;24.95;11.75;;;;;;;-0.12;83.81;99585.94;1708080;84;21140;-73
2022/11/18 18:35:10;;;;;;;20.20;12.03;;;;;;;-0.11;83.84;99593.02;1772885;81;21131;-74
2022/11/18 18:37:40;;;;;;;26.52;12.63;;;;;;;-0.12;83.89;99592.67;1756741;81;21119;-74
2022/11/18 18:40:11;;;;;;;29.32;13.22;;;;;;;-0.13;83.95;99607.98;1708214;82;21158;-75
2022/11/18 18:42:41;;;;;;;20.70;11.95;;;;;;;-0.13;83.92;99609.82;1744089;81;21130;-73
2022/11/18 18:48:04;;;;;;;20.60;11.25;;;;;;;-0.13;84.04;99613.36;1743797;81;21115;-74
2022/11/18 18:50:33;;;;;;;20.70;11.15;;;;;;;-0.14;84.27;99613.51;1743872;81;21562;-75
2022/11/18 18:53:03;;;;;;;19.30;10.93;;;;;;;-0.14;84.27;99609.47;1651316;86;21159;-75
2022/11/18 18:55:32;;;;;;;22.27;11.22;;;;;;;-0.19;84.39;99601.00;1676943;84;21182;-73
2022/11/18 18:58:01;;;;;;;16.93;9.83;;;;;;;-0.22;84.44;99611.56;1701806;84;21166;-75
2022/11/18 19:00:31;;;;;;;20.65;11.12;;;;;;;-0.20;84.68;99614.95;1701693;84;21170;-74
2022/11/18 19:03:00;;;;;;;17.70;9.73;;;;;;;-0.20;84.75;99620.34;1695819;84;21630;-74
2022/11/18 19:05:29;;;;;;;19.00;9.93;;;;;;;-0.20;84.87;99625.72;1678201;85;21155;-74
2022/11/18 19:08:00;;;;;;;20.17;10.40;;;;;;;-0.19;84.87;99634.14;1670547;86;21131;-75